Time;durP1;ratioP1;P1;durP2;ratioP2;P2;SDS_P1;SDS_P2;PMS_P1;PMS_P2;Temp;Humidity;BMP_temperature;BMP_pressure;BME280_temperature;BME280_humidity;BME280_pressure;Samples;Min_cycle;Max_cycle;Signal;HPM_P1;HPM_P2
2022/06/15 00:02:00;;;;;;;8.02;2.00;;;;;;;;;;4997139;28;20563;-69
2022/06/15 00:04:26;;;;;;;3.38;1.85;;;;;;;;;;4998989;28;20214;-70
2022/06/15 00:06:52;;;;;;;4.97;2.00;;;;;;;;;;4996307;28;20182;-70
2022/06/15 00:09:17;;;;;;;7.55;1.90;;;;;;;;;;4997132;28;20198;-69
2022/06/15 00:11:44;;;;;;;6.13;2.22;;;;;;;;;;4998043;28;20206;-69
2022/06/15 00:14:18;;;;;;;5.50;2.15;;;;;;;;;;4999549;28;20659;-69
2022/06/15 00:16:44;;;;;;;5.10;2.33;;;;;;;;;;4996567;28;20210;-69
2022/06/15 00:19:10;;;;;;;7.45;2.40;;;;;;;;;;4997569;28;20633;-69
2022/06/15 00:21:35;;;;;;;7.00;2.33;;;;;;;;;;4996326;28;20288;-69
2022/06/15 00:24:00;;;;;;;3.60;2.30;;;;;;;;;;4996307;28;20261;-69
2022/06/15 00:26:26;;;;;;;5.68;2.55;;;;;;;;;;5002499;28;20235;-68
2022/06/15 00:28:52;;;;;;;7.70;2.60;;;;;;;;;;4996830;28;20215;-70
2022/06/15 00:31:18;;;;;;;6.47;2.50;;;;;;;;;;4997693;28;20217;-70
2022/06/15 00:33:44;;;;;;;6.80;2.80;;;;;;;;;;4995894;28;20206;-69
2022/06/15 00:36:12;;;;;;;6.13;2.33;;;;;;;;;;4997484;28;20191;-70
2022/06/15 00:38:41;;;;;;;4.43;2.22;;;;;;;;;;4995808;28;20179;-69
2022/06/15 00:41:08;;;;;;;3.53;2.30;;;;;;;;;;4991459;28;20270;-70
2022/06/15 00:43:35;;;;;;;5.35;2.92;;;;;;;;;;4996448;28;20745;-70
2022/06/15 00:46:10;;;;;;;4.82;2.28;;;;;;;;;;4996145;28;20340;-69
2022/06/15 00:48:35;;;;;;;3.88;2.55;;;;;;;;;;4991382;28;20200;-70
2022/06/15 00:51:00;;;;;;;7.22;3.08;;;;;;;;;;4997592;28;20183;-68
2022/06/15 00:53:26;;;;;;;4.75;2.50;;;;;;;;;;4995736;28;20240;-68
2022/06/15 00:55:51;;;;;;;6.47;2.95;;;;;;;;;;4995749;28;20547;-70
2022/06/15 00:58:17;;;;;;;3.38;2.45;;;;;;;;;;4997610;28;20199;-69
2022/06/15 01:00:43;;;;;;;9.57;2.95;;;;;;;;;;4998591;28;20659;-70
2022/06/15 01:03:12;;;;;;;7.82;2.92;;;;;;;;;;4997747;28;20183;-70
2022/06/15 01:05:47;;;;;;;6.30;3.30;;;;;;;;;;4999726;28;20208;-70
2022/06/15 01:08:37;;;;;;;6.63;3.25;;;;;;;;;;4998154;28;20557;-70
2022/06/15 01:11:18;;;;;;;6.28;3.05;;;;;;;;;;4999594;28;21001;-69
2022/06/15 01:14:02;;;;;;;6.13;3.10;;;;;;;;;;4999023;28;20659;-69
2022/06/15 01:16:47;;;;;;;7.18;3.50;;;;;;;;;;4998798;28;20199;-69
2022/06/15 01:19:52;;;;;;;8.13;3.13;;;;;;;;;;4999495;28;20194;-69
2022/06/15 01:22:29;;;;;;;7.65;2.90;;;;;;;;;;5000513;28;20240;-70
2022/06/15 01:25:16;;;;;;;5.88;3.22;;;;;;;;;;4999006;28;20229;-71
2022/06/15 01:28:19;;;;;;;11.18;3.40;;;;;;;;;;4996820;28;20235;-69
2022/06/15 01:30:55;;;;;;;6.32;3.30;;;;;;;;;;4997408;28;20213;-69
2022/06/15 01:33:29;;;;;;;10.13;3.22;;;;;;;;;;5000328;28;20202;-70
2022/06/15 01:36:09;;;;;;;6.80;3.38;;;;;;;;;;5000679;28;20291;-69
2022/06/15 01:38:48;;;;;;;9.98;3.45;;;;;;;;;;5000872;28;20717;-70
2022/06/15 01:41:32;;;;;;;6.80;3.95;;;;;;;;;;4998706;28;20187;-70
2022/06/15 01:44:19;;;;;;;5.78;3.78;;;;;;;;;;5014762;28;20187;-70
2022/06/15 01:46:47;;;;;;;8.73;3.90;;;;;;;;;;4999582;28;20282;-69
2022/06/15 01:49:35;;;;;;;6.68;3.72;;;;;;;;;;5000116;28;20309;-70
2022/06/15 01:52:03;;;;;;;6.47;3.47;;;;;;;;;;4999832;28;20452;-69
2022/06/15 01:54:33;;;;;;;6.95;4.05;;;;;;;;;;5000709;28;20752;-70
2022/06/15 01:57:01;;;;;;;7.22;4.13;;;;;;;;;;5000344;28;20266;-70
2022/06/15 01:59:37;;;;;;;7.45;3.90;;;;;;;;;;4996028;28;20183;-70
2022/06/15 02:02:07;;;;;;;5.93;4.30;;;;;;;;;;4999462;28;20187;-69
2022/06/15 02:05:07;;;;;;;6.97;4.05;;;;;;;;;;4998465;28;20225;-69
2022/06/15 02:07:56;;;;;;;6.68;3.50;;;;;;;;;;4998528;28;20526;-69
2022/06/15 02:10:33;;;;;;;9.77;3.95;;;;;;;;;;4997837;28;20749;-69
2022/06/15 02:13:07;;;;;;;10.50;4.47;;;;;;;;;;4998227;28;20288;-70
2022/06/15 02:15:34;;;;;;;9.43;4.25;;;;;;;;;;4999593;28;20195;-70
2022/06/15 02:18:04;;;;;;;7.70;4.15;;;;;;;;;;4997841;28;20794;-70
2022/06/15 02:20:36;;;;;;;8.40;4.32;;;;;;;;;;4998900;28;20633;-70
2022/06/15 02:23:04;;;;;;;6.20;4.00;;;;;;;;;;4999717;28;20210;-70
2022/06/15 02:25:33;;;;;;;7.70;4.40;;;;;;;;;;4996336;28;20203;-70
2022/06/15 02:28:00;;;;;;;9.90;3.88;;;;;;;;;;4997111;28;20251;-70
2022/06/15 02:30:28;;;;;;;8.32;3.97;;;;;;;;;;4998811;28;20826;-70
2022/06/15 02:32:53;;;;;;;10.10;4.32;;;;;;;;;;4996985;28;20260;-70
2022/06/15 02:35:20;;;;;;;8.50;4.13;;;;;;;;;;4996513;28;20829;-70
2022/06/15 02:37:47;;;;;;;8.27;4.30;;;;;;;;;;4996692;28;20191;-69
2022/06/15 02:40:16;;;;;;;10.10;4.68;;;;;;;;;;4997070;28;20198;-70
2022/06/15 02:42:42;;;;;;;11.75;4.78;;;;;;;;;;4997429;28;20186;-70
2022/06/15 02:45:34;;;;;;;9.45;4.68;;;;;;;;;;4998852;28;20662;-70
2022/06/15 02:48:01;;;;;;;7.45;4.88;;;;;;;;;;4998490;28;20536;-69
2022/06/15 02:50:31;;;;;;;10.73;4.57;;;;;;;;;;4996649;28;20684;-69
2022/06/15 02:53:07;;;;;;;10.82;4.30;;;;;;;;;;4998427;28;20194;-69
2022/06/15 02:55:34;;;;;;;6.80;4.55;;;;;;;;;;4997632;28;20263;-69
2022/06/15 02:58:07;;;;;;;8.57;5.10;;;;;;;;;;4998650;28;20218;-70
2022/06/15 03:00:34;;;;;;;9.38;5.05;;;;;;;;;;4997716;28;20593;-70
2022/06/15 03:02:59;;;;;;;7.13;4.75;;;;;;;;;;4998870;28;20194;-69
2022/06/15 03:05:25;;;;;;;11.75;5.13;;;;;;;;;;4998784;28;20715;-70
2022/06/15 03:07:51;;;;;;;9.13;5.10;;;;;;;;;;4996214;28;20650;-70
2022/06/15 03:10:16;;;;;;;12.27;5.28;;;;;;;;;;4996501;28;20190;-71
2022/06/15 03:12:42;;;;;;;8.60;4.95;;;;;;;;;;4998376;28;20225;-69
2022/06/15 03:15:10;;;;;;;10.95;4.75;;;;;;;;;;4997723;28;20261;-70
2022/06/15 03:17:35;;;;;;;5.85;4.55;;;;;;;;;;4995437;28;20205;-70
2022/06/15 03:20:01;;;;;;;7.63;4.50;;;;;;;;;;4996886;28;20186;-70
2022/06/15 03:22:26;;;;;;;8.85;5.03;;;;;;;;;;4997811;28;20182;-70
2022/06/15 03:24:51;;;;;;;6.70;4.53;;;;;;;;;;4997806;28;20256;-70
2022/06/15 03:27:18;;;;;;;8.35;4.90;;;;;;;;;;4997918;28;20736;-69
2022/06/15 03:29:44;;;;;;;8.52;5.03;;;;;;;;;;4997120;28;20191;-70
2022/06/15 03:32:14;;;;;;;8.13;4.72;;;;;;;;;;4995898;28;20810;-70
2022/06/15 03:34:39;;;;;;;9.98;5.03;;;;;;;;;;4995676;28;20182;-70
2022/06/15 03:37:04;;;;;;;7.57;5.30;;;;;;;;;;4995123;28;20862;-70
2022/06/15 03:39:30;;;;;;;10.40;5.25;;;;;;;;;;4997905;28;20178;-71
2022/06/15 03:42:05;;;;;;;11.13;5.38;;;;;;;;;;4995317;28;20214;-70
2022/06/15 03:44:30;;;;;;;11.27;5.72;;;;;;;;;;4997093;28;20209;-70
2022/06/15 03:46:56;;;;;;;7.95;5.32;;;;;;;;;;4995585;28;20539;-70
2022/06/15 03:49:21;;;;;;;7.22;5.40;;;;;;;;;;4998662;28;20606;-70
2022/06/15 03:51:47;;;;;;;8.68;5.72;;;;;;;;;;5011101;28;20256;-69
2022/06/15 03:54:12;;;;;;;9.88;5.45;;;;;;;;;;4997175;28;20186;-70
2022/06/15 03:56:44;;;;;;;7.78;5.43;;;;;;;;;;4997428;28;20194;-69
2022/06/15 03:59:10;;;;;;;9.55;5.15;;;;;;;;;;4997563;28;20845;-70
2022/06/15 04:01:35;;;;;;;14.93;5.72;;;;;;;;;;4995472;28;20321;-70
2022/06/15 04:04:00;;;;;;;12.50;6.15;;;;;;;;;;4997560;28;20273;-70
2022/06/15 04:06:26;;;;;;;9.52;5.53;;;;;;;;;;4997942;28;20581;-70
2022/06/15 04:08:52;;;;;;;12.18;5.13;;;;;;;;;;4997111;28;20316;-70
2022/06/15 04:14:05;;;;;;;8.65;5.20;;;;;;;;;;4997456;28;20209;-69
2022/06/15 04:16:31;;;;;;;9.65;5.75;;;;;;;;;;4997306;28;20183;-70
2022/06/15 04:19:02;;;;;;;13.00;5.22;;;;;;;;;;4997288;28;20233;-70
2022/06/15 04:21:27;;;;;;;6.82;4.82;;;;;;;;;;4995282;28;20179;-70
2022/06/15 04:23:53;;;;;;;9.13;4.93;;;;;;;;;;4996897;28;20190;-71
2022/06/15 04:26:18;;;;;;;9.85;6.30;;;;;;;;;;4994983;28;20649;-70
2022/06/15 04:28:44;;;;;;;7.65;4.97;;;;;;;;;;4997694;28;20297;-70
2022/06/15 04:31:09;;;;;;;7.97;5.20;;;;;;;;;;4995625;28;20749;-70
2022/06/15 04:33:34;;;;;;;10.25;4.82;;;;;;;;;;4998615;28;20610;-70
2022/06/15 04:36:00;;;;;;;7.82;4.97;;;;;;;;;;5002878;28;20670;-70
2022/06/15 04:38:26;;;;;;;7.70;4.60;;;;;;;;;;4999017;28;20309;-70
2022/06/15 04:40:51;;;;;;;8.23;4.30;;;;;;;;;;5000382;28;20686;-70
2022/06/15 04:43:17;;;;;;;7.28;4.45;;;;;;;;;;4999448;28;20194;-70
2022/06/15 04:45:43;;;;;;;10.10;4.40;;;;;;;;;;5000523;28;20207;-70
2022/06/15 04:48:09;;;;;;;4.95;3.85;;;;;;;;;;5013906;28;20618;-71
2022/06/15 04:50:35;;;;;;;6.97;3.90;;;;;;;;;;4998138;28;20799;-71
2022/06/15 04:53:02;;;;;;;9.38;4.20;;;;;;;;;;5000891;28;20190;-71
2022/06/15 04:55:28;;;;;;;8.18;3.85;;;;;;;;;;4998971;28;20659;-70
2022/06/15 04:57:58;;;;;;;7.65;3.90;;;;;;;;;;4998798;28;20569;-71
2022/06/15 05:00:25;;;;;;;6.80;3.85;;;;;;;;;;4999798;28;20553;-70
2022/06/15 05:02:51;;;;;;;6.97;4.00;;;;;;;;;;5000078;28;20621;-70
2022/06/15 05:05:17;;;;;;;6.30;4.22;;;;;;;;;;4992685;28;20308;-70
2022/06/15 05:07:43;;;;;;;6.95;4.15;;;;;;;;;;4999790;28;20183;-71
2022/06/15 05:10:18;;;;;;;9.45;4.78;;;;;;;;;;4999971;28;20499;-70
2022/06/15 05:12:45;;;;;;;7.10;4.53;;;;;;;;;;4996966;28;20190;-71
2022/06/15 05:15:10;;;;;;;6.90;4.95;;;;;;;;;;4999699;28;20202;-70
2022/06/15 05:17:36;;;;;;;9.90;5.00;;;;;;;;;;4999569;28;20706;-70
2022/06/15 05:20:01;;;;;;;7.90;4.70;;;;;;;;;;5001004;28;20450;-69
2022/06/15 05:22:27;;;;;;;11.55;5.32;;;;;;;;;;4998427;28;20210;-69
2022/06/15 05:24:52;;;;;;;8.70;5.50;;;;;;;;;;5015082;28;20885;-70
2022/06/15 05:27:18;;;;;;;10.15;5.57;;;;;;;;;;4998540;28;20226;-70
2022/06/15 05:29:43;;;;;;;10.48;5.47;;;;;;;;;;4998798;28;20195;-70
2022/06/15 05:32:09;;;;;;;10.23;5.28;;;;;;;;;;4996691;28;20195;-71
2022/06/15 05:34:35;;;;;;;10.00;5.70;;;;;;;;;;4998407;28;20286;-70
2022/06/15 05:37:01;;;;;;;9.73;5.25;;;;;;;;;;4999055;28;20990;-71
2022/06/15 05:39:27;;;;;;;11.57;5.47;;;;;;;;;;5001115;28;20270;-70
2022/06/15 05:41:52;;;;;;;13.77;5.95;;;;;;;;;;4998396;28;20631;-70
2022/06/15 05:46:44;;;;;;;8.63;5.53;;;;;;;;;;4998905;28;20317;-71
2022/06/15 05:49:10;;;;;;;11.85;5.18;;;;;;;;;;5000178;28;20840;-71
2022/06/15 05:51:36;;;;;;;8.25;4.72;;;;;;;;;;4997230;28;20186;-69
2022/06/15 05:54:01;;;;;;;10.38;4.72;;;;;;;;;;4995516;28;20240;-69
2022/06/15 05:56:27;;;;;;;8.43;4.55;;;;;;;;;;4997839;28;20646;-70
2022/06/15 05:58:53;;;;;;;6.93;3.70;;;;;;;;;;4996151;28;20182;-69
2022/06/15 06:01:33;;;;;;;8.73;3.97;;;;;;;;;;4998151;28;20707;-69
2022/06/15 06:03:59;;;;;;;11.00;4.10;;;;;;;;;;4995937;28;20187;-72
2022/06/15 06:06:26;;;;;;;8.60;3.30;;;;;;;;;;4998065;28;20280;-70
2022/06/15 06:08:51;;;;;;;8.25;3.13;;;;;;;;;;4996495;28;20302;-68
2022/06/15 06:11:17;;;;;;;7.88;3.20;;;;;;;;;;4996687;28;20199;-69
2022/06/15 06:13:43;;;;;;;10.30;3.70;;;;;;;;;;4996829;28;20530;-69
2022/06/15 06:16:08;;;;;;;10.48;3.63;;;;;;;;;;4998221;28;20198;-69
2022/06/15 06:18:34;;;;;;;8.43;3.33;;;;;;;;;;4994444;28;20642;-68
2022/06/15 06:20:59;;;;;;;6.68;3.53;;;;;;;;;;4993821;28;20190;-67
2022/06/15 06:23:25;;;;;;;9.27;3.50;;;;;;;;;;4999165;28;20190;-68
2022/06/15 06:25:52;;;;;;;9.40;3.67;;;;;;;;;;4960630;28;1133501;-69
2022/06/15 06:28:30;;;;;;;9.18;3.05;;;;;;;;;;4998074;28;20253;-72
2022/06/15 06:30:59;;;;;;;6.45;3.13;;;;;;;;;;4998293;28;20198;-70
2022/06/15 06:33:30;;;;;;;7.40;2.58;;;;;;;;;;4992095;28;20182;-70
2022/06/15 06:35:57;;;;;;;5.85;2.60;;;;;;;;;;4995354;28;20190;-69
2022/06/15 06:38:24;;;;;;;9.27;2.45;;;;;;;;;;4996991;28;20182;-69
2022/06/15 06:40:51;;;;;;;5.68;2.80;;;;;;;;;;4995206;28;20301;-70
2022/06/15 06:43:16;;;;;;;6.78;3.00;;;;;;;;;;4996544;28;20652;-71
2022/06/15 06:45:42;;;;;;;11.95;2.97;;;;;;;;;;4997060;28;20290;-70
2022/06/15 06:48:08;;;;;;;8.07;2.90;;;;;;;;;;4997001;28;20650;-68
2022/06/15 06:50:35;;;;;;;7.03;2.70;;;;;;;;;;4998258;28;20187;-70
2022/06/15 06:53:01;;;;;;;6.40;2.60;;;;;;;;;;4997824;28;20174;-70
2022/06/15 06:55:28;;;;;;;6.20;2.88;;;;;;;;;;4994561;28;20190;-67
2022/06/15 06:57:55;;;;;;;8.15;2.75;;;;;;;;;;4998204;28;20187;-69
2022/06/15 07:00:20;;;;;;;7.35;2.72;;;;;;;;;;4997969;28;20240;-69
2022/06/15 07:02:46;;;;;;;8.35;3.63;;;;;;;;;;4997547;28;20190;-69
2022/06/15 07:05:11;;;;;;;6.75;4.10;;;;;;;;;;4998491;28;20225;-69
2022/06/15 07:07:36;;;;;;;9.00;3.55;;;;;;;;;;4999480;28;20538;-68
2022/06/15 07:10:02;;;;;;;7.93;3.53;;;;;;;;;;4998216;28;20261;-69
2022/06/15 07:12:27;;;;;;;6.97;4.00;;;;;;;;;;4998666;28;20171;-71
2022/06/15 07:14:52;;;;;;;7.10;3.33;;;;;;;;;;4996518;28;20179;-72
2022/06/15 07:17:18;;;;;;;9.45;3.00;;;;;;;;;;4998380;28;20420;-73
2022/06/15 07:19:43;;;;;;;5.88;2.60;;;;;;;;;;4997094;28;20305;-71
2022/06/15 07:22:09;;;;;;;9.98;2.83;;;;;;;;;;4999111;28;20191;-69
2022/06/15 07:24:34;;;;;;;6.13;3.22;;;;;;;;;;4998052;28;20206;-72
2022/06/15 07:27:00;;;;;;;6.63;2.72;;;;;;;;;;4998347;28;20227;-71
2022/06/15 07:29:25;;;;;;;9.27;3.08;;;;;;;;;;4995172;28;20182;-69
2022/06/15 07:31:54;;;;;;;7.43;2.88;;;;;;;;;;4997717;28;20217;-70
2022/06/15 07:34:20;;;;;;;8.35;2.50;;;;;;;;;;4996375;28;20175;-71
2022/06/15 07:36:46;;;;;;;4.25;2.10;;;;;;;;;;4997984;28;20171;-70
2022/06/15 07:39:17;;;;;;;6.32;2.08;;;;;;;;;;5014778;28;20191;-72
2022/06/15 07:41:42;;;;;;;6.40;2.20;;;;;;;;;;4995247;28;20189;-72
2022/06/15 07:44:08;;;;;;;12.05;2.33;;;;;;;;;;4995733;28;20187;-70
2022/06/15 07:46:33;;;;;;;7.20;2.30;;;;;;;;;;4998124;28;20277;-71
2022/06/15 07:51:54;;;;;;;3.70;1.85;;;;;;;;;;4998110;28;20277;-70
2022/06/15 07:54:20;;;;;;;7.13;2.50;;;;;;;;;;5001719;28;20186;-72
2022/06/15 07:56:46;;;;;;;5.53;2.20;;;;;;;;;;4998630;28;20658;-71
2022/06/15 07:59:13;;;;;;;7.45;2.50;;;;;;;;;;4998035;28;20182;-72
2022/06/15 08:01:40;;;;;;;5.93;1.83;;;;;;;;;;4999062;28;20218;-71
2022/06/15 08:04:05;;;;;;;8.02;2.00;;;;;;;;;;4996722;28;20183;-71
2022/06/15 08:06:31;;;;;;;8.88;2.65;;;;;;;;;;4989003;28;20221;-71
2022/06/15 08:08:57;;;;;;;4.43;2.17;;;;;;;;;;4996240;28;20541;-70
2022/06/15 08:11:23;;;;;;;4.22;2.03;;;;;;;;;;4994777;28;21516;-71
2022/06/15 08:13:49;;;;;;;4.70;2.08;;;;;;;;;;5002212;28;20185;-70
2022/06/15 08:16:16;;;;;;;6.80;1.83;;;;;;;;;;5000047;28;20218;-71
2022/06/15 08:18:52;;;;;;;4.60;1.80;;;;;;;;;;5000757;28;20627;-71
2022/06/15 08:21:35;;;;;;;6.10;2.17;;;;;;;;;;4999304;28;20704;-69
2022/06/15 08:24:01;;;;;;;5.25;1.95;;;;;;;;;;5000174;28;20620;-70
2022/06/15 08:26:36;;;;;;;5.18;1.90;;;;;;;;;;4999568;28;20317;-71
2022/06/15 08:29:06;;;;;;;3.85;1.50;;;;;;;;;;4996213;28;20182;-68
2022/06/15 08:31:32;;;;;;;4.20;2.20;;;;;;;;;;4996449;28;20785;-71
2022/06/15 08:33:57;;;;;;;6.28;2.08;;;;;;;;;;4994248;28;20600;-72
2022/06/15 08:36:23;;;;;;;6.45;2.10;;;;;;;;;;4996439;28;20187;-73
2022/06/15 08:38:48;;;;;;;6.18;1.90;;;;;;;;;;4997827;28;20178;-72
2022/06/15 08:41:28;;;;;;;5.88;1.90;;;;;;;;;;5000867;28;20225;-72
2022/06/15 08:44:21;;;;;;;7.20;2.45;;;;;;;;;;4995036;28;20197;-69
2022/06/15 08:46:50;;;;;;;6.72;1.95;;;;;;;;;;4995680;28;20661;-72
2022/06/15 08:49:30;;;;;;;4.65;2.00;;;;;;;;;;4996322;28;20198;-72
2022/06/15 08:52:03;;;;;;;4.55;1.52;;;;;;;;;;4995876;28;20186;-72
2022/06/15 08:55:05;;;;;;;4.40;1.70;;;;;;;;;;4995460;28;20193;-71
2022/06/15 08:57:48;;;;;;;4.03;1.77;;;;;;;;;;4996115;28;20182;-69
2022/06/15 09:00:25;;;;;;;7.40;2.40;;;;;;;;;;5027187;28;20644;-70
2022/06/15 09:03:10;;;;;;;4.85;1.80;;;;;;;;;;4996751;28;20183;-73
2022/06/15 09:06:11;;;;;;;8.20;2.03;;;;;;;;;;4996713;28;20690;-72
2022/06/15 09:09:02;;;;;;;4.40;1.63;;;;;;;;;;4969464;28;20190;-71
2022/06/15 09:11:51;;;;;;;5.18;2.03;;;;;;;;;;4996615;28;20221;-72
2022/06/15 09:14:40;;;;;;;3.70;1.77;;;;;;;;;;4997335;28;20241;-71
2022/06/15 09:17:12;;;;;;;5.25;1.70;;;;;;;;;;4994988;28;20264;-69
2022/06/15 09:19:43;;;;;;;7.20;1.90;;;;;;;;;;4998785;28;20175;-70
2022/06/15 09:22:35;;;;;;;4.55;1.95;;;;;;;;;;4999721;28;20666;-71
2022/06/15 09:25:09;;;;;;;4.05;1.80;;;;;;;;;;4999629;28;20211;-71
2022/06/15 09:27:47;;;;;;;3.88;1.45;;;;;;;;;;5000629;28;20237;-71
2022/06/15 09:30:20;;;;;;;4.13;1.70;;;;;;;;;;4999568;28;20360;-69
2022/06/15 09:32:57;;;;;;;7.65;2.00;;;;;;;;;;5001110;28;20198;-72
2022/06/15 09:35:30;;;;;;;4.60;1.70;;;;;;;;;;4998771;28;20783;-71
2022/06/15 09:37:59;;;;;;;6.40;1.42;;;;;;;;;;5000005;28;20186;-66
2022/06/15 09:40:35;;;;;;;6.10;2.28;;;;;;;;;;4999565;28;20183;-69
2022/06/15 09:43:10;;;;;;;7.35;1.60;;;;;;;;;;5001806;28;20182;-72
2022/06/15 09:45:46;;;;;;;5.80;1.70;;;;;;;;;;5000111;28;20214;-72
2022/06/15 09:48:29;;;;;;;5.03;1.60;;;;;;;;;;5001171;28;20197;-70
2022/06/15 09:51:21;;;;;;;3.92;1.80;;;;;;;;;;5014981;28;20593;-69
2022/06/15 09:54:00;;;;;;;3.58;1.65;;;;;;;;;;4998574;28;20217;-70
2022/06/15 09:56:25;;;;;;;3.63;1.50;;;;;;;;;;4999340;28;20648;-68
2022/06/15 09:59:12;;;;;;;3.17;1.23;;;;;;;;;;4998385;28;20183;-70
2022/06/15 10:01:42;;;;;;;8.52;1.77;;;;;;;;;;4999501;28;20187;-72
2022/06/15 10:04:21;;;;;;;4.32;1.48;;;;;;;;;;4999057;28;20190;-72
2022/06/15 10:07:01;;;;;;;4.90;1.48;;;;;;;;;;4998201;28;20182;-71
2022/06/15 10:09:29;;;;;;;5.15;1.60;;;;;;;;;;4998004;28;20182;-69
2022/06/15 10:12:55;;;;;;;4.93;1.45;;;;;;;;;;4998008;28;20763;-70
2022/06/15 10:14:43;;;;;;;2.28;1.50;;;;;;;;;;4996158;28;20191;-70
2022/06/15 10:17:28;;;;;;;1.92;1.45;;;;;;;;;;4995968;28;20250;-71
2022/06/15 10:19:57;;;;;;;5.32;2.08;;;;;;;;;;4996220;28;20183;-71
2022/06/15 10:22:27;;;;;;;3.42;1.40;;;;;;;;;;4998825;28;20245;-71
2022/06/15 10:24:53;;;;;;;2.95;1.60;;;;;;;;;;5001104;28;21412;-68
2022/06/15 10:27:29;;;;;;;2.83;1.35;;;;;;;;;;4998647;28;20257;-70
2022/06/15 10:30:07;;;;;;;6.50;1.85;;;;;;;;;;4999316;28;20286;-71
2022/06/15 10:32:35;;;;;;;2.13;1.05;;;;;;;;;;5001071;28;20734;-71
2022/06/15 10:35:18;;;;;;;2.40;1.25;;;;;;;;;;4998429;28;20170;-70
2022/06/15 10:37:48;;;;;;;4.75;1.83;;;;;;;;;;4998532;28;20179;-70
2022/06/15 10:40:31;;;;;;;5.55;1.90;;;;;;;;;;4996784;28;20293;-71
2022/06/15 10:43:14;;;;;;;2.65;1.70;;;;;;;;;;4997397;28;20480;-71
2022/06/15 10:46:01;;;;;;;4.80;1.70;;;;;;;;;;4996026;28;20207;-66
2022/06/15 10:48:36;;;;;;;2.78;1.42;;;;;;;;;;4997172;28;20709;-69
2022/06/15 10:51:08;;;;;;;5.65;1.90;;;;;;;;;;4998987;28;20705;-70
2022/06/15 10:53:39;;;;;;;4.25;1.48;;;;;;;;;;4996680;28;20187;-69
2022/06/15 11:02:10;;;;;;;4.50;1.88;;;;;;;;;;4996759;28;20273;-67
2022/06/15 11:04:47;;;;;;;4.03;1.70;;;;;;;;;;4992783;28;20210;-71
2022/06/15 11:07:52;;;;;;;5.53;2.00;;;;;;;;;;4996568;28;20191;-70
2022/06/15 11:10:34;;;;;;;4.82;1.75;;;;;;;;;;4997625;28;20206;-70
2022/06/15 11:13:19;;;;;;;4.03;1.42;;;;;;;;;;4998697;28;20253;-69
2022/06/15 11:18:38;;;;;;;5.72;1.58;;;;;;;;;;4979992;28;20199;-70
2022/06/15 11:21:10;;;;;;;7.10;1.83;;;;;;;;;;5000118;28;20179;-70
2022/06/15 11:24:02;;;;;;;6.45;1.90;;;;;;;;;;4997087;28;20179;-71
2022/06/15 11:26:59;;;;;;;7.72;1.60;;;;;;;;;;4994914;28;20231;-71
2022/06/15 11:29:33;;;;;;;5.43;1.63;;;;;;;;;;4997279;28;20490;-70
2022/06/15 11:32:05;;;;;;;4.15;1.60;;;;;;;;;;4998306;28;20223;-70
2022/06/15 11:34:34;;;;;;;5.13;1.45;;;;;;;;;;4997445;28;20629;-71
2022/06/15 11:37:10;;;;;;;3.53;1.75;;;;;;;;;;4997984;28;20438;-70
2022/06/15 11:39:42;;;;;;;4.43;1.88;;;;;;;;;;5014264;28;20337;-71
2022/06/15 11:42:12;;;;;;;3.72;1.90;;;;;;;;;;4998689;28;20191;-71
2022/06/15 11:44:41;;;;;;;7.57;2.00;;;;;;;;;;4997969;28;20685;-71
2022/06/15 11:47:28;;;;;;;3.78;1.58;;;;;;;;;;4996584;28;20662;-71
2022/06/15 11:50:18;;;;;;;3.78;1.50;;;;;;;;;;4997397;28;20187;-71
2022/06/15 11:53:07;;;;;;;6.78;1.90;;;;;;;;;;4997778;28;20183;-71
2022/06/15 11:55:48;;;;;;;3.70;1.65;;;;;;;;;;4996354;28;20186;-72
2022/06/15 11:58:47;;;;;;;5.63;1.85;;;;;;;;;;4996780;28;20267;-72
2022/06/15 12:01:18;;;;;;;6.03;1.73;;;;;;;;;;4997716;28;20677;-72
2022/06/15 12:03:53;;;;;;;5.22;2.10;;;;;;;;;;4995802;28;20179;-70
2022/06/15 12:06:26;;;;;;;5.85;2.05;;;;;;;;;;4999797;28;20198;-69
2022/06/15 12:08:54;;;;;;;4.40;1.80;;;;;;;;;;4996093;28;20262;-71
2022/06/15 12:14:56;;;;;;;3.17;1.55;;;;;;;;;;4995782;28;20253;-71
2022/06/15 12:17:41;;;;;;;8.23;1.60;;;;;;;;;;4999874;28;20200;-70
2022/06/15 12:20:18;;;;;;;5.63;1.58;;;;;;;;;;4996948;28;20191;-70
2022/06/15 12:23:07;;;;;;;7.20;2.50;;;;;;;;;;4996921;28;20584;-71
2022/06/15 12:25:53;;;;;;;8.63;2.10;;;;;;;;;;4996191;28;20932;-69
2022/06/15 12:28:23;;;;;;;5.50;1.70;;;;;;;;;;4988492;28;20719;-69
2022/06/15 12:31:01;;;;;;;6.00;1.95;;;;;;;;;;4987502;28;20249;-69
2022/06/15 12:33:32;;;;;;;4.30;1.70;;;;;;;;;;4991711;28;20209;-68
2022/06/15 12:36:13;;;;;;;4.28;1.80;;;;;;;;;;4994699;28;21353;-70
2022/06/15 12:38:49;;;;;;;5.85;2.00;;;;;;;;;;4996893;28;20222;-70
2022/06/15 12:44:26;;;;;;;4.05;1.67;;;;;;;;;;4986153;28;20274;-71
2022/06/15 12:46:52;;;;;;;6.28;1.85;;;;;;;;;;4994954;28;20207;-69
2022/06/15 12:49:26;;;;;;;7.07;1.63;;;;;;;;;;4995167;28;20179;-71
2022/06/15 12:52:19;;;;;;;5.05;2.20;;;;;;;;;;4997634;28;20279;-72
2022/06/15 12:55:11;;;;;;;2.65;1.60;;;;;;;;;;5001403;28;20208;-71
2022/06/15 12:57:55;;;;;;;3.45;1.80;;;;;;;;;;4998428;28;20195;-72
2022/06/15 13:00:27;;;;;;;5.03;1.88;;;;;;;;;;5015461;28;20670;-70
2022/06/15 13:02:56;;;;;;;4.40;1.55;;;;;;;;;;4997944;28;20183;-71
2022/06/15 13:05:32;;;;;;;6.70;1.80;;;;;;;;;;4997844;28;20209;-71
2022/06/15 13:08:14;;;;;;;4.28;1.40;;;;;;;;;;4997944;28;20217;-72
2022/06/15 13:11:08;;;;;;;3.53;1.30;;;;;;;;;;4999888;28;20187;-69
2022/06/15 13:13:40;;;;;;;4.00;1.52;;;;;;;;;;5014621;28;20205;-71
2022/06/15 13:16:09;;;;;;;3.85;1.63;;;;;;;;;;4998421;28;20207;-72
2022/06/15 13:18:40;;;;;;;3.85;1.30;;;;;;;;;;4995118;28;20899;-72
2022/06/15 13:21:06;;;;;;;3.33;1.45;;;;;;;;;;4996833;28;20319;-71
2022/06/15 13:23:39;;;;;;;4.45;1.60;;;;;;;;;;4996939;28;20262;-67
2022/06/15 13:26:10;;;;;;;4.40;1.90;;;;;;;;;;4997042;28;20683;-67
2022/06/15 13:28:52;;;;;;;3.60;1.60;;;;;;;;;;4996182;28;20210;-70
2022/06/15 13:31:40;;;;;;;6.07;1.75;;;;;;;;;;4997344;28;20246;-73
2022/06/15 13:34:07;;;;;;;2.78;1.38;;;;;;;;;;4998367;28;20185;-71
2022/06/15 13:36:33;;;;;;;3.00;1.60;;;;;;;;;;5000016;28;20638;-70
2022/06/15 13:38:59;;;;;;;5.25;1.67;;;;;;;;;;5001738;28;20261;-70
2022/06/15 13:41:28;;;;;;;4.45;1.95;;;;;;;;;;5001592;28;20186;-73
2022/06/15 13:43:54;;;;;;;6.32;1.58;;;;;;;;;;5000819;28;20519;-71
2022/06/15 13:46:25;;;;;;;3.95;1.50;;;;;;;;;;5007429;28;20721;-72
2022/06/15 13:48:52;;;;;;;3.35;1.50;;;;;;;;;;5003070;28;20710;-71
2022/06/15 13:51:38;;;;;;;3.97;1.80;;;;;;;;;;4998036;28;20175;-70
2022/06/15 13:54:22;;;;;;;4.38;1.58;;;;;;;;;;5017668;28;20579;-70
2022/06/15 13:57:17;;;;;;;3.03;1.48;;;;;;;;;;5003007;28;20179;-71
2022/06/15 13:59:59;;;;;;;3.03;1.60;;;;;;;;;;5014999;28;20642;-71
2022/06/15 14:02:49;;;;;;;3.83;1.70;;;;;;;;;;4999039;28;20174;-67
2022/06/15 14:05:36;;;;;;;7.82;1.80;;;;;;;;;;5001512;28;20965;-71
2022/06/15 14:08:14;;;;;;;3.85;1.45;;;;;;;;;;4999646;28;20270;-71
2022/06/15 14:11:02;;;;;;;4.13;1.15;;;;;;;;;;5001192;28;20187;-71
2022/06/15 14:13:37;;;;;;;6.90;1.10;;;;;;;;;;5000815;28;20182;-72
2022/06/15 14:16:27;;;;;;;2.88;1.60;;;;;;;;;;4998987;28;20175;-72
2022/06/15 14:18:59;;;;;;;3.15;1.50;;;;;;;;;;5001786;28;20257;-72
2022/06/15 14:21:28;;;;;;;4.43;1.33;;;;;;;;;;5001038;28;20191;-70
2022/06/15 14:23:54;;;;;;;3.33;2.05;;;;;;;;;;4999877;28;20453;-71
2022/06/15 14:26:24;;;;;;;3.88;1.45;;;;;;;;;;4995706;28;20317;-66
2022/06/15 14:29:05;;;;;;;6.70;1.33;;;;;;;;;;4998827;28;20201;-72
2022/06/15 14:31:34;;;;;;;2.72;1.20;;;;;;;;;;4998196;28;20261;-71
2022/06/15 14:34:06;;;;;;;3.42;1.58;;;;;;;;;;5000554;28;20344;-70
2022/06/15 14:36:31;;;;;;;5.35;1.60;;;;;;;;;;5014848;28;20171;-72
2022/06/15 14:39:08;;;;;;;2.40;1.20;;;;;;;;;;5003200;28;20190;-71
2022/06/15 14:41:35;;;;;;;3.28;1.42;;;;;;;;;;4999260;28;20285;-68
2022/06/15 14:44:03;;;;;;;3.17;1.30;;;;;;;;;;5000755;28;20187;-69
2022/06/15 14:46:34;;;;;;;4.57;1.98;;;;;;;;;;4998955;28;20198;-72
2022/06/15 14:48:59;;;;;;;2.63;1.50;;;;;;;;;;4999776;28;20183;-71
2022/06/15 14:51:27;;;;;;;4.82;1.55;;;;;;;;;;5001911;28;20237;-71
2022/06/15 14:54:03;;;;;;;4.72;1.88;;;;;;;;;;4999396;28;20517;-72
2022/06/15 14:56:50;;;;;;;4.75;1.65;;;;;;;;;;4999775;28;20297;-72
2022/06/15 14:59:20;;;;;;;2.47;1.30;;;;;;;;;;5002529;28;20241;-72
2022/06/15 15:02:06;;;;;;;5.47;1.35;;;;;;;;;;4999631;28;20183;-72
2022/06/15 15:04:39;;;;;;;3.83;1.70;;;;;;;;;;4998387;28;20526;-70
2022/06/15 15:10:17;;;;;;;2.47;1.30;;;;;;;;;;4999494;28;20194;-73
2022/06/15 15:12:44;;;;;;;4.10;1.40;;;;;;;;;;5015377;28;20217;-71
2022/06/15 15:15:10;;;;;;;1.75;1.55;;;;;;;;;;4998570;28;20166;-70
2022/06/15 15:17:57;;;;;;;2.88;1.30;;;;;;;;;;4997497;28;20221;-71
2022/06/15 15:20:38;;;;;;;3.35;1.88;;;;;;;;;;5000018;28;21091;-73
2022/06/15 15:23:05;;;;;;;4.05;1.50;;;;;;;;;;5016588;28;20538;-71
2022/06/15 15:25:45;;;;;;;2.22;1.25;;;;;;;;;;5001546;28;20264;-67
2022/06/15 15:34:31;;;;;;;3.45;1.52;;;;;;;;;;5000134;28;20221;-70
2022/06/15 15:39:44;;;;;;;1.73;1.27;;;;;;;;;;4999825;28;20193;-69
2022/06/15 15:42:13;;;;;;;2.83;1.63;;;;;;;;;;4998040;28;20193;-68
2022/06/15 15:44:39;;;;;;;4.15;1.58;;;;;;;;;;4999367;28;20254;-71
2022/06/15 15:47:07;;;;;;;2.42;1.13;;;;;;;;;;4999065;28;20203;-72